sensor_id;sensor_type;location;lat;lon;timestamp;temperature;humidity
11067;DHT22;29763;50.904;5.530;2023-04-30T00:01:45;6.80;99.90
11067;DHT22;29763;50.904;5.530;2023-04-30T00:04:17;6.80;99.90
11067;DHT22;29763;50.904;5.530;2023-04-30T00:06:53;6.70;99.90
11067;DHT22;29763;50.904;5.530;2023-04-30T00:09:18;6.70;99.90
11067;DHT22;29763;50.904;5.530;2023-04-30T00:11:50;6.70;99.90
11067;DHT22;29763;50.904;5.530;2023-04-30T00:14:18;6.70;99.90
11067;DHT22;29763;50.904;5.530;2023-04-30T00:16:45;6.60;99.90
11067;DHT22;29763;50.904;5.530;2023-04-30T00:19:20;6.60;99.90
11067;DHT22;29763;50.904;5.530;2023-04-30T00:21:46;6.50;99.90
11067;DHT22;29763;50.904;5.530;2023-04-30T00:24:13;6.50;99.90
11067;DHT22;29763;50.904;5.530;2023-04-30T00:26:44;6.50;99.90
11067;DHT22;29763;50.904;5.530;2023-04-30T00:29:30;6.50;99.90
11067;DHT22;29763;50.904;5.530;2023-04-30T00:31:56;6.40;99.90
11067;DHT22;29763;50.904;5.530;2023-04-30T00:34:25;6.40;99.90
11067;DHT22;29763;50.904;5.530;2023-04-30T00:36:57;6.40;99.90
11067;DHT22;29763;50.904;5.530;2023-04-30T00:39:24;6.30;99.90
11067;DHT22;29763;50.904;5.530;2023-04-30T00:41:50;6.30;99.90
11067;DHT22;29763;50.904;5.530;2023-04-30T00:44:17;6.20;99.90
11067;DHT22;29763;50.904;5.530;2023-04-30T00:46:44;6.20;99.90
11067;DHT22;29763;50.904;5.530;2023-04-30T00:49:11;6.20;99.90
11067;DHT22;29763;50.904;5.530;2023-04-30T00:51:39;6.20;99.90
11067;DHT22;29763;50.904;5.530;2023-04-30T00:54:07;6.10;99.90
11067;DHT22;29763;50.904;5.530;2023-04-30T00:56:35;6.20;99.90
11067;DHT22;29763;50.904;5.530;2023-04-30T00:59:02;6.20;99.90
11067;DHT22;29763;50.904;5.530;2023-04-30T01:01:33;6.20;99.90
11067;DHT22;29763;50.904;5.530;2023-04-30T01:04:03;6.20;99.90
11067;DHT22;29763;50.904;5.530;2023-04-30T01:06:31;6.30;99.90
11067;DHT22;29763;50.904;5.530;2023-04-30T01:09:04;6.20;99.90
11067;DHT22;29763;50.904;5.530;2023-04-30T01:11:51;6.20;99.90
11067;DHT22;29763;50.904;5.530;2023-04-30T01:14:44;6.30;99.90
11067;DHT22;29763;50.904;5.530;2023-04-30T01:17:29;6.30;99.90
11067;DHT22;29763;50.904;5.530;2023-04-30T01:19:59;6.40;99.90
11067;DHT22;29763;50.904;5.530;2023-04-30T01:25:41;6.50;99.90
11067;DHT22;29763;50.904;5.530;2023-04-30T01:28:15;6.60;99.90
11067;DHT22;29763;50.904;5.530;2023-04-30T01:30:45;6.60;99.90
11067;DHT22;29763;50.904;5.530;2023-04-30T01:33:13;6.60;99.90
11067;DHT22;29763;50.904;5.530;2023-04-30T01:42:03;6.60;99.90
11067;DHT22;29763;50.904;5.530;2023-04-30T01:44:40;6.60;99.90
11067;DHT22;29763;50.904;5.530;2023-04-30T01:47:17;6.50;99.90
11067;DHT22;29763;50.904;5.530;2023-04-30T01:52:50;6.50;99.90
11067;DHT22;29763;50.904;5.530;2023-04-30T01:55:27;6.50;99.90
11067;DHT22;29763;50.904;5.530;2023-04-30T01:58:00;6.50;99.90
11067;DHT22;29763;50.904;5.530;2023-04-30T02:00:30;6.60;99.90
11067;DHT22;29763;50.904;5.530;2023-04-30T02:03:02;6.60;99.90
11067;DHT22;29763;50.904;5.530;2023-04-30T02:05:28;6.60;99.90
11067;DHT22;29763;50.904;5.530;2023-04-30T02:07:56;6.60;99.90
11067;DHT22;29763;50.904;5.530;2023-04-30T02:10:25;6.60;99.90
11067;DHT22;29763;50.904;5.530;2023-04-30T02:12:51;6.50;99.90
11067;DHT22;29763;50.904;5.530;2023-04-30T02:15:17;6.50;99.90
11067;DHT22;29763;50.904;5.530;2023-04-30T02:17:43;6.40;99.90
11067;DHT22;29763;50.904;5.530;2023-04-30T02:20:12;6.40;99.90
11067;DHT22;29763;50.904;5.530;2023-04-30T02:22:38;6.40;99.90
11067;DHT22;29763;50.904;5.530;2023-04-30T02:25:04;6.40;99.90
11067;DHT22;29763;50.904;5.530;2023-04-30T02:27:43;6.40;99.90
11067;DHT22;29763;50.904;5.530;2023-04-30T02:30:09;6.40;99.90
11067;DHT22;29763;50.904;5.530;2023-04-30T02:32:36;6.40;99.90
11067;DHT22;29763;50.904;5.530;2023-04-30T02:35:10;6.50;99.90
11067;DHT22;29763;50.904;5.530;2023-04-30T02:37:36;6.50;99.90
11067;DHT22;29763;50.904;5.530;2023-04-30T02:40:03;6.50;99.90
11067;DHT22;29763;50.904;5.530;2023-04-30T02:42:32;6.60;99.90
11067;DHT22;29763;50.904;5.530;2023-04-30T02:44:58;6.60;99.90
11067;DHT22;29763;50.904;5.530;2023-04-30T02:47:33;6.60;99.90
11067;DHT22;29763;50.904;5.530;2023-04-30T02:49:59;6.60;99.90
11067;DHT22;29763;50.904;5.530;2023-04-30T02:52:31;6.60;99.90
11067;DHT22;29763;50.904;5.530;2023-04-30T02:54:59;6.50;99.90
11067;DHT22;29763;50.904;5.530;2023-04-30T02:57:34;6.50;99.90
11067;DHT22;29763;50.904;5.530;2023-04-30T03:00:01;6.50;99.90
11067;DHT22;29763;50.904;5.530;2023-04-30T03:02:29;6.40;99.90
11067;DHT22;29763;50.904;5.530;2023-04-30T03:04:58;6.40;99.90
11067;DHT22;29763;50.904;5.530;2023-04-30T03:07:24;6.50;99.90
11067;DHT22;29763;50.904;5.530;2023-04-30T03:09:56;6.50;99.90
11067;DHT22;29763;50.904;5.530;2023-04-30T03:12:23;6.60;99.90
11067;DHT22;29763;50.904;5.530;2023-04-30T03:14:49;6.60;99.90
11067;DHT22;29763;50.904;5.530;2023-04-30T03:17:15;6.60;99.90
11067;DHT22;29763;50.904;5.530;2023-04-30T03:19:42;6.70;99.90
11067;DHT22;29763;50.904;5.530;2023-04-30T03:22:11;6.70;99.90
11067;DHT22;29763;50.904;5.530;2023-04-30T03:24:49;6.70;99.90
11067;DHT22;29763;50.904;5.530;2023-04-30T03:27:19;6.60;99.90
11067;DHT22;29763;50.904;5.530;2023-04-30T03:29:45;6.60;99.90
11067;DHT22;29763;50.904;5.530;2023-04-30T03:32:13;6.50;99.90
11067;DHT22;29763;50.904;5.530;2023-04-30T03:34:40;6.40;99.90
11067;DHT22;29763;50.904;5.530;2023-04-30T03:37:08;6.30;99.90
11067;DHT22;29763;50.904;5.530;2023-04-30T03:39:33;6.30;99.90
11067;DHT22;29763;50.904;5.530;2023-04-30T03:41:59;6.20;99.90
11067;DHT22;29763;50.904;5.530;2023-04-30T03:44:35;6.20;99.90
11067;DHT22;29763;50.904;5.530;2023-04-30T03:47:02;6.10;99.90
11067;DHT22;29763;50.904;5.530;2023-04-30T03:49:29;6.00;99.90
11067;DHT22;29763;50.904;5.530;2023-04-30T03:51:55;6.00;99.90
11067;DHT22;29763;50.904;5.530;2023-04-30T03:54:22;6.00;99.90
11067;DHT22;29763;50.904;5.530;2023-04-30T03:56:48;5.80;99.90
11067;DHT22;29763;50.904;5.530;2023-04-30T03:59:15;5.80;99.90
11067;DHT22;29763;50.904;5.530;2023-04-30T04:01:41;5.80;99.90
11067;DHT22;29763;50.904;5.530;2023-04-30T04:04:08;5.80;99.90
11067;DHT22;29763;50.904;5.530;2023-04-30T04:06:41;5.70;99.90
11067;DHT22;29763;50.904;5.530;2023-04-30T04:09:08;5.70;99.90
11067;DHT22;29763;50.904;5.530;2023-04-30T04:11:34;5.70;99.90
11067;DHT22;29763;50.904;5.530;2023-04-30T04:13:59;5.70;99.90
11067;DHT22;29763;50.904;5.530;2023-04-30T04:16:26;5.70;99.90
11067;DHT22;29763;50.904;5.530;2023-04-30T04:18:58;5.60;99.90
11067;DHT22;29763;50.904;5.530;2023-04-30T04:21:25;5.60;99.90
11067;DHT22;29763;50.904;5.530;2023-04-30T04:23:51;5.60;99.90
11067;DHT22;29763;50.904;5.530;2023-04-30T04:26:25;5.60;99.90
11067;DHT22;29763;50.904;5.530;2023-04-30T04:28:54;5.60;99.90
11067;DHT22;29763;50.904;5.530;2023-04-30T04:31:27;5.60;99.90
11067;DHT22;29763;50.904;5.530;2023-04-30T04:33:53;5.60;99.90
11067;DHT22;29763;50.904;5.530;2023-04-30T04:36:23;5.70;99.90
11067;DHT22;29763;50.904;5.530;2023-04-30T04:38:52;5.80;99.90
11067;DHT22;29763;50.904;5.530;2023-04-30T04:41:23;5.90;99.90
11067;DHT22;29763;50.904;5.530;2023-04-30T04:43:55;6.00;99.90
11067;DHT22;29763;50.904;5.530;2023-04-30T04:46:40;6.10;99.90
11067;DHT22;29763;50.904;5.530;2023-04-30T04:49:17;6.20;99.90
11067;DHT22;29763;50.904;5.530;2023-04-30T04:51:43;6.20;99.90
11067;DHT22;29763;50.904;5.530;2023-04-30T04:54:09;6.30;99.90
11067;DHT22;29763;50.904;5.530;2023-04-30T04:56:35;6.30;99.90
11067;DHT22;29763;50.904;5.530;2023-04-30T04:59:01;6.30;99.90
11067;DHT22;29763;50.904;5.530;2023-04-30T05:01:27;6.40;99.90
11067;DHT22;29763;50.904;5.530;2023-04-30T05:03:55;6.40;99.90
11067;DHT22;29763;50.904;5.530;2023-04-30T05:06:23;6.40;99.90
11067;DHT22;29763;50.904;5.530;2023-04-30T05:08:51;6.40;99.90
11067;DHT22;29763;50.904;5.530;2023-04-30T05:11:17;6.50;99.90
11067;DHT22;29763;50.904;5.530;2023-04-30T05:13:43;6.60;99.90
11067;DHT22;29763;50.904;5.530;2023-04-30T05:16:12;6.70;99.90
11067;DHT22;29763;50.904;5.530;2023-04-30T05:18:38;6.80;99.90
11067;DHT22;29763;50.904;5.530;2023-04-30T05:21:04;6.90;99.90
11067;DHT22;29763;50.904;5.530;2023-04-30T05:23:30;7.00;99.90
11067;DHT22;29763;50.904;5.530;2023-04-30T05:26:02;7.10;99.90
11067;DHT22;29763;50.904;5.530;2023-04-30T05:28:34;7.30;99.90
11067;DHT22;29763;50.904;5.530;2023-04-30T05:31:05;7.50;99.90
11067;DHT22;29763;50.904;5.530;2023-04-30T05:33:31;7.70;99.90
11067;DHT22;29763;50.904;5.530;2023-04-30T05:36:15;7.90;99.90
11067;DHT22;29763;50.904;5.530;2023-04-30T05:38:41;8.20;99.90
11067;DHT22;29763;50.904;5.530;2023-04-30T05:41:10;8.40;99.90
11067;DHT22;29763;50.904;5.530;2023-04-30T05:43:41;8.70;99.90
11067;DHT22;29763;50.904;5.530;2023-04-30T05:46:07;8.80;99.90
11067;DHT22;29763;50.904;5.530;2023-04-30T05:48:36;9.00;99.90
11067;DHT22;29763;50.904;5.530;2023-04-30T05:51:04;9.20;99.90
11067;DHT22;29763;50.904;5.530;2023-04-30T05:53:31;9.30;99.90
11067;DHT22;29763;50.904;5.530;2023-04-30T05:55:57;9.40;99.90
11067;DHT22;29763;50.904;5.530;2023-04-30T05:58:24;9.60;99.90
11067;DHT22;29763;50.904;5.530;2023-04-30T06:00:52;9.60;99.90
11067;DHT22;29763;50.904;5.530;2023-04-30T06:03:19;9.60;99.90
11067;DHT22;29763;50.904;5.530;2023-04-30T06:05:48;9.80;99.90
11067;DHT22;29763;50.904;5.530;2023-04-30T06:08:25;9.90;99.90
11067;DHT22;29763;50.904;5.530;2023-04-30T06:11:15;9.90;99.90
11067;DHT22;29763;50.904;5.530;2023-04-30T06:14:11;10.10;99.90
11067;DHT22;29763;50.904;5.530;2023-04-30T06:20:02;10.70;99.90
11067;DHT22;29763;50.904;5.530;2023-04-30T06:22:58;10.70;99.90
11067;DHT22;29763;50.904;5.530;2023-04-30T06:25:28;10.60;99.90
11067;DHT22;29763;50.904;5.530;2023-04-30T06:28:21;10.70;99.90
11067;DHT22;29763;50.904;5.530;2023-04-30T06:31:13;11.00;99.90
11067;DHT22;29763;50.904;5.530;2023-04-30T06:34:02;11.20;99.90
11067;DHT22;29763;50.904;5.530;2023-04-30T06:36:44;11.60;99.90
11067;DHT22;29763;50.904;5.530;2023-04-30T06:39:18;11.90;99.90
11067;DHT22;29763;50.904;5.530;2023-04-30T06:44:49;12.30;99.90
11067;DHT22;29763;50.904;5.530;2023-04-30T06:47:30;12.20;99.90
11067;DHT22;29763;50.904;5.530;2023-04-30T06:50:10;12.20;99.90
11067;DHT22;29763;50.904;5.530;2023-04-30T06:52:48;12.50;99.90
11067;DHT22;29763;50.904;5.530;2023-04-30T06:55:20;12.50;99.90
11067;DHT22;29763;50.904;5.530;2023-04-30T06:57:59;12.70;99.90
11067;DHT22;29763;50.904;5.530;2023-04-30T07:00:26;13.00;99.90
11067;DHT22;29763;50.904;5.530;2023-04-30T07:02:53;13.00;99.90
11067;DHT22;29763;50.904;5.530;2023-04-30T07:05:18;13.40;99.90
11067;DHT22;29763;50.904;5.530;2023-04-30T07:07:44;13.50;99.90
11067;DHT22;29763;50.904;5.530;2023-04-30T07:10:10;13.50;99.90
11067;DHT22;29763;50.904;5.530;2023-04-30T07:12:44;13.70;99.90
11067;DHT22;29763;50.904;5.530;2023-04-30T07:15:13;14.00;99.90
11067;DHT22;29763;50.904;5.530;2023-04-30T07:17:40;14.30;99.90
11067;DHT22;29763;50.904;5.530;2023-04-30T07:20:10;14.10;99.90
11067;DHT22;29763;50.904;5.530;2023-04-30T07:22:37;14.00;99.90
11067;DHT22;29763;50.904;5.530;2023-04-30T07:25:05;14.20;99.90
11067;DHT22;29763;50.904;5.530;2023-04-30T07:27:39;14.50;99.90
11067;DHT22;29763;50.904;5.530;2023-04-30T07:30:28;14.50;99.90
11067;DHT22;29763;50.904;5.530;2023-04-30T07:32:55;15.10;99.90
11067;DHT22;29763;50.904;5.530;2023-04-30T07:35:32;15.60;99.90
11067;DHT22;29763;50.904;5.530;2023-04-30T07:37:58;15.20;99.90
11067;DHT22;29763;50.904;5.530;2023-04-30T07:40:24;15.70;99.90
11067;DHT22;29763;50.904;5.530;2023-04-30T07:42:51;15.80;99.90
11067;DHT22;29763;50.904;5.530;2023-04-30T07:45:17;16.10;99.90
11067;DHT22;29763;50.904;5.530;2023-04-30T07:47:46;15.80;99.90
11067;DHT22;29763;50.904;5.530;2023-04-30T07:50:13;16.10;99.90
11067;DHT22;29763;50.904;5.530;2023-04-30T07:52:41;17.00;99.90
11067;DHT22;29763;50.904;5.530;2023-04-30T07:55:08;16.60;99.90
11067;DHT22;29763;50.904;5.530;2023-04-30T07:57:40;17.20;99.90
11067;DHT22;29763;50.904;5.530;2023-04-30T08:00:08;17.50;99.90
11067;DHT22;29763;50.904;5.530;2023-04-30T08:02:34;17.10;99.90
11067;DHT22;29763;50.904;5.530;2023-04-30T08:05:03;17.00;99.90
11067;DHT22;29763;50.904;5.530;2023-04-30T08:07:31;16.90;99.90
11067;DHT22;29763;50.904;5.530;2023-04-30T08:09:57;17.10;99.90
11067;DHT22;29763;50.904;5.530;2023-04-30T08:12:23;17.80;99.90
11067;DHT22;29763;50.904;5.530;2023-04-30T08:14:51;18.50;99.90
11067;DHT22;29763;50.904;5.530;2023-04-30T08:17:25;18.40;99.90
11067;DHT22;29763;50.904;5.530;2023-04-30T08:19:50;18.20;99.90
11067;DHT22;29763;50.904;5.530;2023-04-30T08:22:18;18.80;99.90
11067;DHT22;29763;50.904;5.530;2023-04-30T08:24:43;18.40;99.90
11067;DHT22;29763;50.904;5.530;2023-04-30T08:27:11;18.20;99.90
11067;DHT22;29763;50.904;5.530;2023-04-30T08:29:37;18.50;99.90
11067;DHT22;29763;50.904;5.530;2023-04-30T08:32:02;19.00;99.90
11067;DHT22;29763;50.904;5.530;2023-04-30T08:34:30;19.10;99.90
11067;DHT22;29763;50.904;5.530;2023-04-30T08:37:01;19.40;99.90
11067;DHT22;29763;50.904;5.530;2023-04-30T08:39:28;19.70;99.90
11067;DHT22;29763;50.904;5.530;2023-04-30T08:41:55;19.30;99.90
11067;DHT22;29763;50.904;5.530;2023-04-30T08:44:25;19.70;99.90
11067;DHT22;29763;50.904;5.530;2023-04-30T08:46:59;18.50;99.90
11067;DHT22;29763;50.904;5.530;2023-04-30T08:49:28;18.50;99.90
11067;DHT22;29763;50.904;5.530;2023-04-30T08:51:58;18.60;99.90
11067;DHT22;29763;50.904;5.530;2023-04-30T08:54:27;18.70;99.90
11067;DHT22;29763;50.904;5.530;2023-04-30T08:56:56;18.90;99.90
11067;DHT22;29763;50.904;5.530;2023-04-30T08:59:23;19.40;99.90
11067;DHT22;29763;50.904;5.530;2023-04-30T09:01:49;20.00;99.90
11067;DHT22;29763;50.904;5.530;2023-04-30T09:04:16;20.10;99.90
11067;DHT22;29763;50.904;5.530;2023-04-30T09:06:48;20.40;99.90
11067;DHT22;29763;50.904;5.530;2023-04-30T09:09:29;20.70;99.90
11067;DHT22;29763;50.904;5.530;2023-04-30T09:15:02;19.80;99.90
11067;DHT22;29763;50.904;5.530;2023-04-30T09:17:29;20.20;99.90
11067;DHT22;29763;50.904;5.530;2023-04-30T09:20:09;20.10;99.90
11067;DHT22;29763;50.904;5.530;2023-04-30T09:22:37;20.30;99.90
11067;DHT22;29763;50.904;5.530;2023-04-30T09:25:06;20.80;99.90
11067;DHT22;29763;50.904;5.530;2023-04-30T09:27:32;20.90;99.90
11067;DHT22;29763;50.904;5.530;2023-04-30T09:29:59;21.50;99.90
11067;DHT22;29763;50.904;5.530;2023-04-30T09:32:25;21.00;99.90
11067;DHT22;29763;50.904;5.530;2023-04-30T09:34:51;21.70;99.90
11067;DHT22;29763;50.904;5.530;2023-04-30T09:37:17;20.50;99.90
11067;DHT22;29763;50.904;5.530;2023-04-30T09:39:53;20.10;99.90
11067;DHT22;29763;50.904;5.530;2023-04-30T09:42:19;20.80;99.90
11067;DHT22;29763;50.904;5.530;2023-04-30T09:44:47;20.70;99.90
11067;DHT22;29763;50.904;5.530;2023-04-30T09:47:18;20.50;99.90
11067;DHT22;29763;50.904;5.530;2023-04-30T09:49:49;20.80;99.90
11067;DHT22;29763;50.904;5.530;2023-04-30T09:52:22;20.80;99.90
11067;DHT22;29763;50.904;5.530;2023-04-30T09:54:48;20.60;99.90
11067;DHT22;29763;50.904;5.530;2023-04-30T09:57:15;20.50;99.90
11067;DHT22;29763;50.904;5.530;2023-04-30T09:59:45;20.70;99.90
11067;DHT22;29763;50.904;5.530;2023-04-30T10:02:14;21.30;99.90
11067;DHT22;29763;50.904;5.530;2023-04-30T10:04:48;21.50;99.90
11067;DHT22;29763;50.904;5.530;2023-04-30T10:07:20;21.30;99.90
11067;DHT22;29763;50.904;5.530;2023-04-30T10:09:57;20.50;99.90
11067;DHT22;29763;50.904;5.530;2023-04-30T10:12:29;20.20;99.90
11067;DHT22;29763;50.904;5.530;2023-04-30T10:15:10;20.00;99.90
11067;DHT22;29763;50.904;5.530;2023-04-30T10:17:39;20.10;99.90
11067;DHT22;29763;50.904;5.530;2023-04-30T10:20:08;20.40;99.90
11067;DHT22;29763;50.904;5.530;2023-04-30T10:22:36;20.90;99.90
11067;DHT22;29763;50.904;5.530;2023-04-30T10:25:02;21.30;99.90
11067;DHT22;29763;50.904;5.530;2023-04-30T10:27:39;21.20;99.90
11067;DHT22;29763;50.904;5.530;2023-04-30T10:30:08;20.40;99.90
11067;DHT22;29763;50.904;5.530;2023-04-30T10:36:00;20.10;99.90
11067;DHT22;29763;50.904;5.530;2023-04-30T10:38:28;19.80;99.90
11067;DHT22;29763;50.904;5.530;2023-04-30T10:41:04;19.60;99.90
11067;DHT22;29763;50.904;5.530;2023-04-30T10:43:31;19.90;99.90
11067;DHT22;29763;50.904;5.530;2023-04-30T10:45:57;20.60;99.90
11067;DHT22;29763;50.904;5.530;2023-04-30T10:48:25;21.30;99.90
11067;DHT22;29763;50.904;5.530;2023-04-30T10:50:59;22.20;98.90
11067;DHT22;29763;50.904;5.530;2023-04-30T10:53:29;22.30;97.80
11067;DHT22;29763;50.904;5.530;2023-04-30T10:56:05;22.70;97.80
11067;DHT22;29763;50.904;5.530;2023-04-30T10:58:33;22.20;96.90
11067;DHT22;29763;50.904;5.530;2023-04-30T11:01:16;21.90;97.40
11067;DHT22;29763;50.904;5.530;2023-04-30T11:04:05;21.70;97.50
11067;DHT22;29763;50.904;5.530;2023-04-30T11:06:55;21.60;97.70
11067;DHT22;29763;50.904;5.530;2023-04-30T11:09:43;21.10;95.50
11067;DHT22;29763;50.904;5.530;2023-04-30T11:12:21;20.60;97.10
11067;DHT22;29763;50.904;5.530;2023-04-30T11:15:13;20.40;97.60
11067;DHT22;29763;50.904;5.530;2023-04-30T11:17:42;20.60;96.10
11067;DHT22;29763;50.904;5.530;2023-04-30T11:20:12;20.90;96.40
11067;DHT22;29763;50.904;5.530;2023-04-30T11:22:45;21.00;95.20
11067;DHT22;29763;50.904;5.530;2023-04-30T11:25:11;21.70;96.80
11067;DHT22;29763;50.904;5.530;2023-04-30T11:27:41;21.30;94.40
11067;DHT22;29763;50.904;5.530;2023-04-30T11:30:15;21.50;95.90
11067;DHT22;29763;50.904;5.530;2023-04-30T11:32:43;21.90;95.70
11067;DHT22;29763;50.904;5.530;2023-04-30T11:35:14;21.10;95.80
11067;DHT22;29763;50.904;5.530;2023-04-30T11:37:43;21.30;96.40
11067;DHT22;29763;50.904;5.530;2023-04-30T11:40:11;21.80;95.80
11067;DHT22;29763;50.904;5.530;2023-04-30T11:42:39;21.90;96.90
11067;DHT22;29763;50.904;5.530;2023-04-30T11:45:10;22.10;94.50
11067;DHT22;29763;50.904;5.530;2023-04-30T11:47:41;22.00;97.20
11067;DHT22;29763;50.904;5.530;2023-04-30T11:50:12;22.60;96.10
11067;DHT22;29763;50.904;5.530;2023-04-30T11:52:40;23.30;95.70
11067;DHT22;29763;50.904;5.530;2023-04-30T11:55:18;22.90;93.80
11067;DHT22;29763;50.904;5.530;2023-04-30T11:57:47;23.00;94.20
11067;DHT22;29763;50.904;5.530;2023-04-30T12:00:33;22.30;92.40
11067;DHT22;29763;50.904;5.530;2023-04-30T12:03:00;22.30;94.90
11067;DHT22;29763;50.904;5.530;2023-04-30T12:05:32;22.40;93.10
11067;DHT22;29763;50.904;5.530;2023-04-30T12:08:06;22.80;94.80
11067;DHT22;29763;50.904;5.530;2023-04-30T12:10:34;22.70;93.70
11067;DHT22;29763;50.904;5.530;2023-04-30T12:13:01;22.80;94.10
11067;DHT22;29763;50.904;5.530;2023-04-30T12:15:28;22.80;93.60
11067;DHT22;29763;50.904;5.530;2023-04-30T12:17:56;22.70;93.10
11067;DHT22;29763;50.904;5.530;2023-04-30T12:20:24;22.60;93.50
11067;DHT22;29763;50.904;5.530;2023-04-30T12:22:50;22.70;94.20
11067;DHT22;29763;50.904;5.530;2023-04-30T12:25:18;22.20;92.70
11067;DHT22;29763;50.904;5.530;2023-04-30T12:28:02;22.40;94.20
11067;DHT22;29763;50.904;5.530;2023-04-30T12:30:28;22.50;93.90
11067;DHT22;29763;50.904;5.530;2023-04-30T12:32:57;22.30;93.60
11067;DHT22;29763;50.904;5.530;2023-04-30T12:35:30;22.10;95.20
11067;DHT22;29763;50.904;5.530;2023-04-30T12:38:06;22.50;94.40
11067;DHT22;29763;50.904;5.530;2023-04-30T12:40:34;22.50;94.70
11067;DHT22;29763;50.904;5.530;2023-04-30T12:43:05;22.70;93.90
11067;DHT22;29763;50.904;5.530;2023-04-30T12:45:52;23.10;93.50
11067;DHT22;29763;50.904;5.530;2023-04-30T12:48:26;22.80;93.60
11067;DHT22;29763;50.904;5.530;2023-04-30T12:50:54;22.70;92.80
11067;DHT22;29763;50.904;5.530;2023-04-30T12:53:21;22.10;93.20
11067;DHT22;29763;50.904;5.530;2023-04-30T12:58:53;21.60;93.30
11067;DHT22;29763;50.904;5.530;2023-04-30T13:01:20;21.50;94.50
11067;DHT22;29763;50.904;5.530;2023-04-30T13:03:49;21.70;94.20
11067;DHT22;29763;50.904;5.530;2023-04-30T13:06:15;21.30;93.00
11067;DHT22;29763;50.904;5.530;2023-04-30T13:08:41;21.30;93.40
11067;DHT22;29763;50.904;5.530;2023-04-30T13:11:10;21.60;93.60
11067;DHT22;29763;50.904;5.530;2023-04-30T13:13:37;22.00;92.60
11067;DHT22;29763;50.904;5.530;2023-04-30T13:16:03;22.30;91.70
11067;DHT22;29763;50.904;5.530;2023-04-30T13:18:32;21.70;93.10
11067;DHT22;29763;50.904;5.530;2023-04-30T13:20:57;21.70;93.50
11067;DHT22;29763;50.904;5.530;2023-04-30T13:23:24;21.80;94.80
11067;DHT22;29763;50.904;5.530;2023-04-30T13:25:51;21.70;93.40
11067;DHT22;29763;50.904;5.530;2023-04-30T13:28:16;21.40;92.60
11067;DHT22;29763;50.904;5.530;2023-04-30T13:30:42;21.60;93.20
11067;DHT22;29763;50.904;5.530;2023-04-30T13:33:16;21.60;93.90
11067;DHT22;29763;50.904;5.530;2023-04-30T13:35:41;22.00;92.20
11067;DHT22;29763;50.904;5.530;2023-04-30T13:38:07;22.30;94.00
11067;DHT22;29763;50.904;5.530;2023-04-30T13:40:33;22.30;93.90
11067;DHT22;29763;50.904;5.530;2023-04-30T13:43:01;21.90;93.20
11067;DHT22;29763;50.904;5.530;2023-04-30T13:45:29;21.40;94.20
11067;DHT22;29763;50.904;5.530;2023-04-30T13:48:00;21.50;94.00
11067;DHT22;29763;50.904;5.530;2023-04-30T13:50:26;21.90;94.80
11067;DHT22;29763;50.904;5.530;2023-04-30T13:52:51;21.50;93.00
11067;DHT22;29763;50.904;5.530;2023-04-30T13:55:18;21.60;93.80
11067;DHT22;29763;50.904;5.530;2023-04-30T13:57:43;22.00;94.90
11067;DHT22;29763;50.904;5.530;2023-04-30T14:00:10;22.50;94.20
11067;DHT22;29763;50.904;5.530;2023-04-30T14:02:37;21.80;93.40
11067;DHT22;29763;50.904;5.530;2023-04-30T14:05:03;21.80;93.40
11067;DHT22;29763;50.904;5.530;2023-04-30T14:07:31;21.70;94.50
11067;DHT22;29763;50.904;5.530;2023-04-30T14:10:03;22.20;93.60
11067;DHT22;29763;50.904;5.530;2023-04-30T14:12:29;22.80;94.40
11067;DHT22;29763;50.904;5.530;2023-04-30T14:14:56;22.90;94.00
11067;DHT22;29763;50.904;5.530;2023-04-30T14:17:24;22.10;92.80
11067;DHT22;29763;50.904;5.530;2023-04-30T14:19:51;21.00;94.30
11067;DHT22;29763;50.904;5.530;2023-04-30T14:22:18;20.50;95.60
11067;DHT22;29763;50.904;5.530;2023-04-30T14:24:43;20.60;95.80
11067;DHT22;29763;50.904;5.530;2023-04-30T14:27:09;20.60;94.80
11067;DHT22;29763;50.904;5.530;2023-04-30T14:29:36;21.00;95.90
11067;DHT22;29763;50.904;5.530;2023-04-30T14:32:06;21.50;96.20
11067;DHT22;29763;50.904;5.530;2023-04-30T14:34:32;21.70;95.10
11067;DHT22;29763;50.904;5.530;2023-04-30T14:37:02;22.30;93.70
11067;DHT22;29763;50.904;5.530;2023-04-30T14:39:29;22.30;94.20
11067;DHT22;29763;50.904;5.530;2023-04-30T14:41:59;22.50;95.10
11067;DHT22;29763;50.904;5.530;2023-04-30T14:44:26;22.40;95.20
11067;DHT22;29763;50.904;5.530;2023-04-30T14:46:52;22.20;94.80
11067;DHT22;29763;50.904;5.530;2023-04-30T14:49:18;22.20;95.10
11067;DHT22;29763;50.904;5.530;2023-04-30T14:51:43;22.00;94.60
11067;DHT22;29763;50.904;5.530;2023-04-30T14:54:09;21.50;93.20
11067;DHT22;29763;50.904;5.530;2023-04-30T14:56:35;21.20;93.60
11067;DHT22;29763;50.904;5.530;2023-04-30T14:59:01;21.20;93.60
11067;DHT22;29763;50.904;5.530;2023-04-30T15:01:27;20.30;94.40
11067;DHT22;29763;50.904;5.530;2023-04-30T15:03:54;20.00;94.70
11067;DHT22;29763;50.904;5.530;2023-04-30T15:06:23;19.90;95.40
11067;DHT22;29763;50.904;5.530;2023-04-30T15:08:48;19.80;97.00
11067;DHT22;29763;50.904;5.530;2023-04-30T15:11:21;20.10;96.20
11067;DHT22;29763;50.904;5.530;2023-04-30T15:13:48;20.40;96.00
11067;DHT22;29763;50.904;5.530;2023-04-30T15:16:15;20.60;96.70
11067;DHT22;29763;50.904;5.530;2023-04-30T15:18:43;20.80;95.60
11067;DHT22;29763;50.904;5.530;2023-04-30T15:21:11;20.70;95.80
11067;DHT22;29763;50.904;5.530;2023-04-30T15:23:37;20.80;96.30
11067;DHT22;29763;50.904;5.530;2023-04-30T15:26:05;20.50;94.80
11067;DHT22;29763;50.904;5.530;2023-04-30T15:28:31;20.50;95.70
11067;DHT22;29763;50.904;5.530;2023-04-30T15:31:01;20.30;96.20
11067;DHT22;29763;50.904;5.530;2023-04-30T15:33:31;20.20;96.50
11067;DHT22;29763;50.904;5.530;2023-04-30T15:35:58;20.00;96.60
11067;DHT22;29763;50.904;5.530;2023-04-30T15:38:24;20.10;97.00
11067;DHT22;29763;50.904;5.530;2023-04-30T15:40:50;20.30;97.10
11067;DHT22;29763;50.904;5.530;2023-04-30T15:43:16;20.10;96.60
11067;DHT22;29763;50.904;5.530;2023-04-30T15:45:43;19.80;96.60
11067;DHT22;29763;50.904;5.530;2023-04-30T15:48:11;19.70;97.00
11067;DHT22;29763;50.904;5.530;2023-04-30T15:50:38;20.00;96.70
11067;DHT22;29763;50.904;5.530;2023-04-30T15:53:06;20.20;97.20
11067;DHT22;29763;50.904;5.530;2023-04-30T15:55:32;20.50;97.20
11067;DHT22;29763;50.904;5.530;2023-04-30T15:58:01;20.80;96.70
11067;DHT22;29763;50.904;5.530;2023-04-30T16:00:28;20.80;96.60
11067;DHT22;29763;50.904;5.530;2023-04-30T16:02:55;20.50;96.50
11067;DHT22;29763;50.904;5.530;2023-04-30T16:05:23;20.30;97.40
11067;DHT22;29763;50.904;5.530;2023-04-30T16:07:51;20.30;98.00
11067;DHT22;29763;50.904;5.530;2023-04-30T16:10:19;19.90;96.90
11067;DHT22;29763;50.904;5.530;2023-04-30T16:12:47;19.60;97.50
11067;DHT22;29763;50.904;5.530;2023-04-30T16:15:13;19.60;97.70
11067;DHT22;29763;50.904;5.530;2023-04-30T16:17:39;19.70;98.80
11067;DHT22;29763;50.904;5.530;2023-04-30T16:20:06;19.50;98.50
11067;DHT22;29763;50.904;5.530;2023-04-30T16:22:34;19.50;98.60